createdAt,value
2023-01-31T00:01:28.152Z,100957.72
2023-01-31T00:04:30.229Z,100975.13
2023-01-31T00:07:31.821Z,100976.50
2023-01-31T00:10:33.640Z,100971.56
2023-01-31T00:13:35.448Z,100973.88
2023-01-31T00:16:38.399Z,100979.41
2023-01-31T00:19:40.263Z,100963.03
2023-01-31T00:22:42.090Z,100980.81
2023-01-31T00:25:44.117Z,100973.78
2023-01-31T00:28:46.977Z,100977.22
2023-01-31T00:31:48.803Z,100988.41
2023-01-31T00:34:54.028Z,100985.59
2023-01-31T00:37:55.868Z,100987.56
2023-01-31T00:40:57.505Z,100994.63
2023-01-31T00:44:00.750Z,100985.69
2023-01-31T00:47:02.529Z,100993.63
2023-01-31T00:50:05.587Z,100998.91
2023-01-31T00:53:07.426Z,101014.97
2023-01-31T00:56:15.734Z,101001.63
2023-01-31T00:59:17.678Z,100997.34
2023-01-31T01:02:19.423Z,101006.69
2023-01-31T01:05:21.497Z,101003.31
2023-01-31T01:08:23.478Z,101012.75
2023-01-31T01:11:30.803Z,101027.31
2023-01-31T01:14:32.384Z,101029.88
2023-01-31T01:17:34.364Z,101043.97
2023-01-31T01:20:36.670Z,101033.75
2023-01-31T01:23:41.022Z,101019.31
2023-01-31T01:26:43.449Z,101032.91
2023-01-31T01:29:45.288Z,101030.75
2023-01-31T01:32:47.339Z,101027.38
2023-01-31T01:35:49.652Z,101039.38
2023-01-31T01:38:52.763Z,101047.47
2023-01-31T01:41:55.697Z,101042.13
2023-01-31T01:45:02.812Z,101048.97
2023-01-31T01:48:08.962Z,101047.75
2023-01-31T01:51:12.515Z,101068.91
2023-01-31T01:54:21.452Z,101068.75
2023-01-31T01:57:31.307Z,101059.72
2023-01-31T02:00:35.125Z,101072.84
2023-01-31T02:03:38.361Z,101077.03
2023-01-31T02:06:41.216Z,101070.03
2023-01-31T02:09:51.708Z,101067.44
2023-01-31T02:12:53.438Z,101057.81
2023-01-31T02:15:55.739Z,101058.66
2023-01-31T02:18:58.504Z,101059.34
2023-01-31T02:22:27.376Z,101061.88
2023-01-31T02:26:24.527Z,101079.09
2023-01-31T02:30:03.066Z,101069.03
2023-01-31T02:33:14.047Z,101070.03
2023-01-31T02:36:28.533Z,101072.00
2023-01-31T02:40:17.580Z,101090.75
2023-01-31T02:44:03.983Z,101076.81
2023-01-31T02:47:41.342Z,101072.25
2023-01-31T02:51:11.124Z,101062.03
2023-01-31T02:54:17.901Z,101076.91
2023-01-31T02:57:19.908Z,101077.69
2023-01-31T03:00:23.005Z,101079.50
2023-01-31T03:03:32.215Z,101073.44
2023-01-31T03:06:36.979Z,101070.88
2023-01-31T03:10:17.015Z,101071.66
2023-01-31T03:13:37.255Z,101074.66
2023-01-31T03:17:33.024Z,101068.78
2023-01-31T03:20:38.331Z,101083.34
2023-01-31T03:23:45.654Z,101049.00
2023-01-31T03:26:48.268Z,101042.19
2023-01-31T03:29:53.513Z,101037.81
2023-01-31T03:33:14.416Z,101040.38
2023-01-31T03:36:29.091Z,101033.44
2023-01-31T03:40:00.161Z,101017.69
2023-01-31T03:43:20.442Z,101015.56
2023-01-31T03:46:34.922Z,101017.63
2023-01-31T03:49:42.721Z,101021.78
2023-01-31T03:52:57.675Z,101017.59
2023-01-31T03:56:33.074Z,101030.63
2023-01-31T03:59:39.111Z,101029.06
2023-01-31T04:02:41.588Z,101031.56
2023-01-31T04:05:44.187Z,101045.47
2023-01-31T04:08:46.778Z,101024.41
2023-01-31T04:11:50.679Z,101029.38
2023-01-31T04:14:52.396Z,101022.59
2023-01-31T04:17:54.079Z,101017.91
2023-01-31T04:20:55.940Z,101026.97
2023-01-31T04:23:57.767Z,101030.16
2023-01-31T04:26:59.345Z,101040.16
2023-01-31T04:30:01.082Z,101032.19
2023-01-31T04:33:02.747Z,101038.06
2023-01-31T04:36:04.848Z,101038.16
2023-01-31T04:39:06.675Z,101031.81
2023-01-31T04:42:08.391Z,101038.34
2023-01-31T04:45:10.906Z,101025.56
2023-01-31T04:48:13.342Z,101022.59
2023-01-31T04:51:15.166Z,101025.97
2023-01-31T04:54:16.917Z,101035.53
2023-01-31T04:57:18.608Z,101030.56
2023-01-31T05:00:20.638Z,101040.50
2023-01-31T05:03:22.457Z,101041.13
2023-01-31T05:06:24.336Z,101034.97
2023-01-31T05:09:26.461Z,101040.56
2023-01-31T05:12:28.558Z,101035.41
2023-01-31T05:15:30.314Z,101034.50
2023-01-31T05:18:32.576Z,101038.66
2023-01-31T05:21:54.383Z,101037.66
2023-01-31T05:24:57.622Z,101027.41
2023-01-31T05:28:00.339Z,101023.78
2023-01-31T05:31:05.064Z,101015.13
2023-01-31T05:34:07.488Z,101016.13
2023-01-31T05:37:09.395Z,101016.16
2023-01-31T05:40:13.714Z,101020.56
2023-01-31T05:43:15.663Z,101017.31
2023-01-31T05:46:17.439Z,101016.81
2023-01-31T05:49:19.129Z,101016.50
2023-01-31T05:52:20.988Z,101014.28
2023-01-31T05:55:23.616Z,101013.47
2023-01-31T05:58:25.443Z,101008.53
2023-01-31T06:01:27.828Z,101004.03
2023-01-31T06:04:29.670Z,100999.72
2023-01-31T06:07:31.421Z,100995.56
2023-01-31T06:10:33.378Z,101004.97
2023-01-31T06:13:35.136Z,100995.44
2023-01-31T06:16:37.109Z,101002.13
2023-01-31T06:19:39.035Z,100990.03
2023-01-31T06:22:41.582Z,100990.88
2023-01-31T06:25:43.576Z,100992.31
2023-01-31T06:28:46.281Z,100994.97
2023-01-31T06:31:48.848Z,100992.38
2023-01-31T06:34:50.805Z,100995.63
2023-01-31T06:37:52.790Z,100997.00
2023-01-31T06:40:54.603Z,100985.81
2023-01-31T06:43:57.573Z,100980.38
2023-01-31T06:47:02.230Z,100967.78
2023-01-31T06:50:04.338Z,100972.72
2023-01-31T06:53:06.121Z,100973.16
2023-01-31T06:56:08.995Z,100967.78
2023-01-31T06:59:11.195Z,100969.38
2023-01-31T07:02:13.030Z,100967.03
2023-01-31T07:05:15.527Z,100956.72
2023-01-31T07:08:17.278Z,100953.28
2023-01-31T07:11:19.128Z,100953.47
2023-01-31T07:14:21.119Z,100945.28
2023-01-31T07:17:22.861Z,100942.09
2023-01-31T07:20:25.090Z,100924.88
2023-01-31T07:23:26.685Z,100923.59
2023-01-31T07:26:28.609Z,100910.22
2023-01-31T07:29:31.199Z,100899.09
2023-01-31T07:32:33.517Z,100898.72
2023-01-31T07:35:35.103Z,100898.56
2023-01-31T07:38:37.055Z,100895.09
2023-01-31T07:41:38.898Z,100893.78
2023-01-31T07:44:42.631Z,100881.63
2023-01-31T07:47:44.599Z,100889.09
2023-01-31T07:50:46.999Z,100877.00
2023-01-31T07:53:49.170Z,100863.16
2023-01-31T07:56:51.374Z,100868.78
2023-01-31T07:59:53.374Z,100872.00
2023-01-31T08:03:13.347Z,100871.88
2023-01-31T08:06:15.517Z,100872.41
2023-01-31T08:09:17.414Z,100867.91
2023-01-31T08:12:19.340Z,100859.81
2023-01-31T08:15:21.575Z,100846.84
2023-01-31T08:18:23.567Z,100835.88
2023-01-31T08:21:25.417Z,100825.03
2023-01-31T08:24:27.184Z,100821.63
2023-01-31T08:27:29.497Z,100823.00
2023-01-31T08:30:31.708Z,100817.50
2023-01-31T08:33:33.379Z,100819.59
2023-01-31T08:36:36.392Z,100829.84
2023-01-31T08:39:38.018Z,100810.56
2023-01-31T08:42:39.963Z,100808.28
2023-01-31T08:45:42.397Z,100801.34
2023-01-31T08:48:44.148Z,100800.22
2023-01-31T08:51:46.259Z,100789.97
2023-01-31T08:54:48.170Z,100802.47
2023-01-31T08:57:59.460Z,100778.34
2023-01-31T09:01:06.835Z,100782.41
2023-01-31T09:04:09.426Z,100779.59
2023-01-31T09:07:11.247Z,100783.00
2023-01-31T09:10:13.125Z,100764.97
2023-01-31T09:13:14.932Z,100773.34
2023-01-31T09:16:17.272Z,100764.66
2023-01-31T09:19:20.299Z,100777.63
2023-01-31T09:22:22.754Z,100779.03
2023-01-31T09:25:41.365Z,100778.28
2023-01-31T09:28:46.051Z,100770.75
2023-01-31T09:31:52.253Z,100776.25
2023-01-31T09:34:53.959Z,100774.75
2023-01-31T09:37:55.676Z,100777.69
2023-01-31T09:41:02.976Z,100762.91
2023-01-31T09:44:13.672Z,100771.88
2023-01-31T09:47:29.971Z,100770.50
2023-01-31T09:50:56.162Z,100769.34
2023-01-31T09:53:58.106Z,100751.63
2023-01-31T09:57:12.414Z,100748.69
2023-01-31T10:00:37.110Z,100737.63
2023-01-31T10:03:58.299Z,100727.38
2023-01-31T10:07:18.236Z,100728.66
2023-01-31T10:10:37.760Z,100721.72
2023-01-31T10:13:47.099Z,100730.72
2023-01-31T10:17:23.151Z,100728.91
2023-01-31T10:20:50.197Z,100723.31
2023-01-31T10:24:02.286Z,100711.97
2023-01-31T10:27:11.365Z,100701.34
2023-01-31T10:30:24.745Z,100697.44
2023-01-31T10:33:39.095Z,100686.81
2023-01-31T10:36:47.193Z,100689.50
2023-01-31T10:39:54.608Z,100679.63
2023-01-31T10:43:06.015Z,100682.19
2023-01-31T10:46:12.738Z,100663.56
2023-01-31T10:49:15.520Z,100650.28
2023-01-31T10:52:32.429Z,100643.16
2023-01-31T10:55:49.478Z,100637.31
2023-01-31T10:58:52.040Z,100621.78
2023-01-31T11:01:54.373Z,100610.94
2023-01-31T11:04:59.336Z,100612.50
2023-01-31T11:08:16.810Z,100612.84
2023-01-31T11:11:22.888Z,100609.03
2023-01-31T11:14:24.833Z,100629.81
2023-01-31T11:17:31.263Z,100599.44
2023-01-31T11:20:37.097Z,100613.16
2023-01-31T11:23:39.200Z,100579.13
2023-01-31T11:26:55.644Z,100590.50
2023-01-31T11:30:00.549Z,100598.00
2023-01-31T11:33:02.608Z,100591.38
2023-01-31T11:36:16.027Z,100602.00
2023-01-31T11:39:38.339Z,100577.50
2023-01-31T11:43:04.483Z,100590.81
2023-01-31T11:46:08.183Z,100603.06
2023-01-31T11:49:13.533Z,100576.75
2023-01-31T11:52:20.680Z,100561.22
2023-01-31T11:55:23.374Z,100569.91
2023-01-31T11:58:38.443Z,100548.28
2023-01-31T12:01:54.955Z,100539.53
2023-01-31T12:04:57.409Z,100573.63
2023-01-31T12:08:00.419Z,100532.59
2023-01-31T12:11:20.206Z,100536.81
2023-01-31T12:14:24.904Z,100543.50
2023-01-31T12:17:30.786Z,100543.50
2023-01-31T12:20:53.571Z,100536.56
2023-01-31T12:24:26.313Z,100526.66
2023-01-31T12:28:09.798Z,100517.28
2023-01-31T12:31:31.392Z,100512.97
2023-01-31T12:35:08.198Z,100523.66
2023-01-31T12:38:20.435Z,100513.63
2023-01-31T12:41:57.633Z,100544.41
2023-01-31T12:45:15.241Z,100544.59
2023-01-31T12:48:54.195Z,100516.13
2023-01-31T12:52:01.614Z,100525.41
2023-01-31T12:55:19.095Z,100530.78
2023-01-31T12:58:40.543Z,100512.25
2023-01-31T13:02:13.276Z,100537.25
2023-01-31T13:05:38.779Z,100541.69
2023-01-31T13:08:50.811Z,100537.13
2023-01-31T13:12:07.333Z,100529.19
2023-01-31T13:15:31.699Z,100534.16
2023-01-31T13:18:35.753Z,100533.41
2023-01-31T13:21:44.340Z,100549.53
2023-01-31T13:24:50.728Z,100541.22
2023-01-31T13:28:03.254Z,100535.09
2023-01-31T13:31:13.829Z,100522.84
2023-01-31T13:34:34.102Z,100531.28
2023-01-31T13:37:39.400Z,100546.50
2023-01-31T13:40:53.490Z,100547.31
2023-01-31T13:43:59.081Z,100528.63
2023-01-31T13:47:12.392Z,100530.28
2023-01-31T13:50:50.684Z,100526.81
2023-01-31T13:54:15.065Z,100513.56
2023-01-31T13:57:33.668Z,100493.63
2023-01-31T14:00:40.806Z,100492.63
2023-01-31T14:04:14.602Z,100482.31
2023-01-31T14:07:24.120Z,100476.25
2023-01-31T14:10:28.522Z,100492.13
2023-01-31T14:13:33.323Z,100490.47
2023-01-31T14:16:44.238Z,100482.06
2023-01-31T14:19:46.099Z,100487.75
2023-01-31T14:23:26.817Z,100472.19
2023-01-31T14:26:50.363Z,100480.50
2023-01-31T14:30:07.481Z,100482.19
2023-01-31T14:33:12.071Z,100462.31
2023-01-31T14:36:22.260Z,100468.09
2023-01-31T14:39:54.305Z,100464.44
2023-01-31T14:43:33.903Z,100470.41
2023-01-31T14:46:45.846Z,100465.19
2023-01-31T14:50:32.314Z,100469.13
2023-01-31T14:53:57.578Z,100470.78
2023-01-31T14:57:25.272Z,100485.25
2023-01-31T15:00:31.648Z,100488.75
2023-01-31T15:03:50.840Z,100493.88
2023-01-31T15:06:55.217Z,100495.53
2023-01-31T15:09:57.106Z,100486.19
2023-01-31T15:13:05.022Z,100494.88
2023-01-31T15:16:16.201Z,100486.25
2023-01-31T15:19:20.400Z,100494.69
2023-01-31T15:22:22.659Z,100492.88
2023-01-31T15:25:33.934Z,100505.03
2023-01-31T15:28:43.418Z,100504.16
2023-01-31T15:31:47.948Z,100517.53
2023-01-31T15:35:14.366Z,100488.94
2023-01-31T15:38:40.666Z,100484.66
2023-01-31T15:41:43.464Z,100485.47
2023-01-31T15:44:45.292Z,100467.59
2023-01-31T15:48:02.414Z,100470.97
2023-01-31T15:51:04.320Z,100467.34
2023-01-31T15:54:07.134Z,100482.66
2023-01-31T15:57:16.023Z,100480.53
2023-01-31T16:00:26.844Z,100462.69
2023-01-31T16:03:32.056Z,100489.09
2023-01-31T16:06:36.956Z,100467.56
2023-01-31T16:09:39.220Z,100479.66
2023-01-31T16:12:45.240Z,100472.50
2023-01-31T16:15:47.539Z,100474.13
2023-01-31T16:18:52.085Z,100468.66
2023-01-31T16:21:55.413Z,100460.69
2023-01-31T16:25:00.254Z,100451.13
2023-01-31T16:28:12.195Z,100459.56
2023-01-31T16:31:17.208Z,100461.78
2023-01-31T16:34:32.371Z,100482.03
2023-01-31T16:37:40.939Z,100499.19
2023-01-31T16:40:52.995Z,100507.56
2023-01-31T16:43:56.177Z,100511.47
2023-01-31T16:46:58.601Z,100498.47
2023-01-31T16:50:42.903Z,100507.69
2023-01-31T16:54:07.651Z,100504.75
2023-01-31T16:57:37.402Z,100512.34
2023-01-31T17:00:41.852Z,100519.16
2023-01-31T17:03:44.540Z,100534.56
2023-01-31T17:07:03.526Z,100520.81
2023-01-31T17:10:08.293Z,100528.91
2023-01-31T17:13:26.609Z,100536.34
2023-01-31T17:16:30.865Z,100503.22
2023-01-31T17:19:32.608Z,100494.06
2023-01-31T17:22:34.368Z,100517.81
2023-01-31T17:25:39.349Z,100503.03
2023-01-31T17:28:46.841Z,100493.88
2023-01-31T17:31:52.323Z,100502.03
2023-01-31T17:34:54.140Z,100496.53
2023-01-31T17:37:55.926Z,100509.38
2023-01-31T17:40:57.600Z,100506.06
2023-01-31T17:44:00.754Z,100504.91
2023-01-31T17:47:02.957Z,100510.75
2023-01-31T17:50:05.760Z,100528.72
2023-01-31T17:53:07.500Z,100493.50
2023-01-31T17:56:09.375Z,100503.03
2023-01-31T17:59:21.652Z,100507.63
2023-01-31T18:02:28.437Z,100499.69
2023-01-31T18:05:38.703Z,100513.91
2023-01-31T18:08:40.895Z,100506.47
2023-01-31T18:11:43.769Z,100530.50
2023-01-31T18:14:45.861Z,100543.06
2023-01-31T18:17:47.815Z,100504.66
2023-01-31T18:20:49.754Z,100514.72
2023-01-31T18:23:53.202Z,100510.34
2023-01-31T18:26:56.875Z,100530.69
2023-01-31T18:29:58.651Z,100550.22
2023-01-31T18:33:01.072Z,100541.41
2023-01-31T18:36:03.519Z,100559.84
2023-01-31T18:39:06.382Z,100542.81
2023-01-31T18:42:08.424Z,100526.66
2023-01-31T18:45:10.821Z,100515.88
2023-01-31T18:48:12.869Z,100543.13
2023-01-31T18:51:16.421Z,100532.19
2023-01-31T18:54:18.458Z,100533.84
2023-01-31T18:57:20.224Z,100554.69
2023-01-31T19:00:22.368Z,100552.28
2023-01-31T19:03:25.023Z,100555.09
2023-01-31T19:06:35.459Z,100552.44
2023-01-31T19:09:37.320Z,100565.22
2023-01-31T19:12:41.919Z,100562.47
2023-01-31T19:15:43.660Z,100558.41
2023-01-31T19:18:45.549Z,100581.69
2023-01-31T19:21:47.266Z,100555.38
2023-01-31T19:24:49.103Z,100569.13
2023-01-31T19:27:51.295Z,100571.78
2023-01-31T19:30:53.221Z,100560.78
2023-01-31T19:33:57.001Z,100563.34
2023-01-31T19:36:58.855Z,100579.91
2023-01-31T19:40:01.946Z,100583.47
2023-01-31T19:43:04.475Z,100599.88
2023-01-31T19:46:07.101Z,100597.31
2023-01-31T19:49:10.202Z,100573.50
2023-01-31T19:52:11.892Z,100589.97
2023-01-31T19:55:13.712Z,100583.19
2023-01-31T19:58:15.500Z,100600.41
2023-01-31T20:01:17.316Z,100594.94
2023-01-31T20:04:19.086Z,100607.28
2023-01-31T20:07:21.116Z,100598.00
2023-01-31T20:10:24.577Z,100603.56
2023-01-31T20:13:26.876Z,100649.75
2023-01-31T20:16:29.214Z,100598.34
2023-01-31T20:19:31.207Z,100606.22
2023-01-31T20:22:34.180Z,100617.00
2023-01-31T20:25:36.102Z,100611.00
2023-01-31T20:28:38.237Z,100619.00
2023-01-31T20:31:40.299Z,100616.81
2023-01-31T20:34:42.246Z,100613.69
2023-01-31T20:37:44.516Z,100610.47
2023-01-31T20:40:51.266Z,100608.72
2023-01-31T20:43:54.232Z,100610.59
2023-01-31T20:46:56.901Z,100595.47
2023-01-31T20:49:58.918Z,100603.31
2023-01-31T20:53:00.692Z,100594.53
2023-01-31T20:56:10.523Z,100614.47
2023-01-31T20:59:12.852Z,100599.84
2023-01-31T21:02:14.906Z,100592.81
2023-01-31T21:05:18.369Z,100610.59
2023-01-31T21:08:21.436Z,100609.53
2023-01-31T21:11:23.074Z,100591.59
2023-01-31T21:14:24.992Z,100618.22
2023-01-31T21:17:39.186Z,100617.63
2023-01-31T21:20:41.725Z,100609.00
2023-01-31T21:23:43.364Z,100614.38
2023-01-31T21:26:45.282Z,100622.31
2023-01-31T21:29:47.146Z,100597.31
2023-01-31T21:32:49.001Z,100588.88
2023-01-31T21:35:50.858Z,100587.31
2023-01-31T21:38:53.287Z,100591.28
2023-01-31T21:42:13.452Z,100582.09
2023-01-31T21:45:15.294Z,100579.16
2023-01-31T21:48:32.234Z,100587.19
2023-01-31T21:51:34.104Z,100595.41
2023-01-31T21:54:36.615Z,100575.69
2023-01-31T21:57:38.576Z,100570.72
2023-01-31T22:00:43.262Z,100588.25
2023-01-31T22:03:53.504Z,100599.84
2023-01-31T22:06:55.748Z,100579.19
2023-01-31T22:09:57.482Z,100577.84
2023-01-31T22:12:59.060Z,100570.97
2023-01-31T22:16:03.513Z,100585.59
2023-01-31T22:19:05.817Z,100599.31
2023-01-31T22:22:07.692Z,100584.13
2023-01-31T22:25:09.685Z,100589.09
2023-01-31T22:28:11.301Z,100586.91
2023-01-31T22:31:13.285Z,100653.06
2023-01-31T22:34:16.366Z,100592.91
2023-01-31T22:37:18.322Z,100597.56
2023-01-31T22:40:20.333Z,100597.56
2023-01-31T22:43:23.554Z,100601.78
2023-01-31T22:46:28.651Z,100608.72
2023-01-31T22:49:30.532Z,100581.28
2023-01-31T22:52:32.772Z,100583.25
2023-01-31T22:55:42.511Z,100586.13
2023-01-31T22:58:44.566Z,100588.53
2023-01-31T23:01:46.343Z,100582.69
2023-01-31T23:04:48.072Z,100606.22
2023-01-31T23:07:49.853Z,100574.50
2023-01-31T23:10:52.045Z,100582.75
2023-01-31T23:13:53.835Z,100574.41
2023-01-31T23:17:14.214Z,100608.25
2023-01-31T23:20:18.416Z,100576.88
2023-01-31T23:23:20.991Z,100584.50
2023-01-31T23:26:23.009Z,100589.69
2023-01-31T23:29:24.733Z,100583.16
2023-01-31T23:32:27.859Z,100586.53
2023-01-31T23:35:29.677Z,100582.94
2023-01-31T23:38:31.970Z,100569.13
2023-01-31T23:41:33.716Z,100573.72
2023-01-31T23:44:36.979Z,100576.16
2023-01-31T23:47:42.754Z,100569.53
2023-01-31T23:50:44.709Z,100561.50
2023-01-31T23:53:46.773Z,100569.25
2023-01-31T23:56:48.684Z,100562.47
2023-01-31T23:59:50.599Z,100569.09
